Time;durP1;ratioP1;P1;durP2;ratioP2;P2;SDS_P1;SDS_P2;PMS_P1;PMS_P2;Temp;Humidity;BMP_temperature;BMP_pressure;BME280_temperature;BME280_humidity;BME280_pressure;Samples;Min_cycle;Max_cycle;Signal;HPM_P1;HPM_P2
2022/09/19 00:01:10;;;;;;;2.03;1.27;;;;;;;10.99;86.90;95376.22;5013480;28;20202;-87
2022/09/19 00:03:38;;;;;;;2.87;1.20;;;;;;;11.01;86.74;95374.28;5013659;28;20219;-87
2022/09/19 00:06:05;;;;;;;1.37;1.10;;;;;;;10.99;87.39;95365.94;5013444;28;20242;-87
2022/09/19 00:08:31;;;;;;;1.07;1.00;;;;;;;11.00;88.99;95370.91;5018088;28;20226;-88
2022/09/19 00:11:01;;;;;;;2.17;1.33;;;;;;;11.01;87.97;95371.69;5013573;28;20209;-88
2022/09/19 00:13:28;;;;;;;3.40;2.30;;;;;;;10.96;87.93;95369.69;5013642;28;20294;-87
2022/09/19 00:15:54;;;;;;;1.30;1.20;;;;;;;10.94;88.45;95370.84;5012906;28;20636;-87
2022/09/19 00:27:03;;;;;;;2.40;1.20;;;;;;;11.05;87.78;95370.34;5013240;28;20241;-87
2022/09/19 00:29:32;;;;;;;1.03;0.93;;;;;;;11.01;87.67;95374.28;5034536;23;20353;-80
2022/09/19 00:31:59;;;;;;;1.70;1.13;;;;;;;10.95;88.62;95378.41;5012477;28;20666;-80
2022/09/19 00:34:25;;;;;;;1.57;1.27;;;;;;;10.95;89.88;95375.03;5013459;28;20253;-80
2022/09/19 00:36:53;;;;;;;1.47;1.17;;;;;;;10.94;90.14;95381.97;5012955;28;20233;-80
2022/09/19 00:39:20;;;;;;;2.73;1.43;;;;;;;10.90;91.80;95375.56;5013107;28;20222;-81
2022/09/19 00:41:48;;;;;;;2.90;1.33;;;;;;;10.84;93.50;95398.69;5012163;28;20245;-81
2022/09/19 00:44:53;;;;;;;1.87;1.50;;;;;;;10.83;92.75;95382.44;5012787;28;20249;-80
2022/09/19 00:47:24;;;;;;;3.23;1.53;;;;;;;10.84;94.56;95388.38;4992914;28;20227;-79
2022/09/19 00:49:54;;;;;;;1.40;1.30;;;;;;;10.80;93.88;95382.00;4992696;28;20257;-82
2022/09/19 00:52:30;;;;;;;1.67;1.30;;;;;;;10.80;94.43;95387.94;4991118;28;20754;-84
2022/09/19 00:54:57;;;;;;;1.63;1.13;;;;;;;10.82;93.75;95387.75;4994545;28;20207;-82
2022/09/19 00:57:27;;;;;;;1.20;1.10;;;;;;;10.73;95.17;95382.75;5012323;28;20718;-81
2022/09/19 00:59:55;;;;;;;2.47;1.33;;;;;;;10.73;95.36;95390.47;5012137;28;20222;-81
2022/09/19 01:02:23;;;;;;;2.80;1.30;;;;;;;10.76;94.89;95398.81;5011741;28;20206;-78
2022/09/19 01:04:49;;;;;;;2.77;1.30;;;;;;;10.63;95.01;95389.13;5011754;28;20227;-80
2022/09/19 01:07:28;;;;;;;1.63;1.20;;;;;;;10.70;95.14;95390.03;5012117;28;20253;-79
2022/09/19 01:10:03;;;;;;;1.20;1.10;;;;;;;10.62;94.46;95382.41;5012570;28;20230;-79
2022/09/19 01:12:48;;;;;;;3.13;1.10;;;;;;;10.65;94.03;95379.47;5012803;28;20853;-80
2022/09/19 01:15:30;;;;;;;3.20;1.30;;;;;;;10.71;95.14;95386.47;5010958;28;20306;-79
2022/09/19 01:17:59;;;;;;;1.20;1.10;;;;;;;10.80;94.39;95393.09;5011686;28;20208;-79
2022/09/19 01:20:56;;;;;;;1.50;1.13;;;;;;;10.85;94.97;95387.41;5011568;28;20233;-79
2022/09/19 01:23:49;;;;;;;1.37;1.20;;;;;;;10.87;95.42;95390.59;5011804;28;20269;-79
2022/09/19 01:26:34;;;;;;;1.33;1.23;;;;;;;10.88;96.00;95389.63;5010988;28;20606;-79
2022/09/19 01:29:08;;;;;;;1.40;1.30;;;;;;;10.79;96.93;95395.84;5011340;28;20235;-80
2022/09/19 01:31:39;;;;;;;5.17;1.80;;;;;;;10.74;99.23;95424.75;5011379;28;20756;-80
2022/09/19 01:34:12;;;;;;;1.17;1.07;;;;;;;10.65;95.82;95418.09;5011900;28;20207;-82
2022/09/19 01:36:43;;;;;;;0.70;0.70;;;;;;;10.35;93.98;95413.00;5011353;28;20235;-82
2022/09/19 01:39:12;;;;;;;0.60;0.60;;;;;;;10.33;94.06;95432.16;5011687;28;20637;-81
2022/09/19 01:41:38;;;;;;;0.60;0.60;;;;;;;10.28;94.42;95424.16;5011072;28;20257;-80
2022/09/19 01:44:17;;;;;;;1.00;0.50;;;;;;;10.23;92.49;95431.63;5011354;28;20207;-80
2022/09/19 01:46:52;;;;;;;0.50;0.47;;;;;;;10.19;91.40;95432.97;5011538;28;20230;-78
2022/09/19 01:49:35;;;;;;;0.77;0.50;;;;;;;10.19;92.27;95441.47;5012012;28;20286;-80
2022/09/19 01:52:15;;;;;;;0.40;0.40;;;;;;;10.17;92.22;95448.53;5010121;28;20203;-81
2022/09/19 01:54:49;;;;;;;0.47;0.40;;;;;;;10.08;92.37;95436.72;5011898;28;20289;-80
2022/09/19 01:57:31;;;;;;;0.50;0.50;;;;;;;10.10;91.24;95439.94;5011274;28;20226;-80
2022/09/19 02:00:07;;;;;;;0.40;0.40;;;;;;;10.15;90.71;95449.69;5011920;28;20218;-80
2022/09/19 02:02:46;;;;;;;0.30;0.30;;;;;;;10.13;92.97;95452.44;5011820;28;20207;-79
2022/09/19 02:05:15;;;;;;;0.50;0.40;;;;;;;10.10;92.85;95450.22;5011234;28;20236;-78
2022/09/19 02:07:50;;;;;;;0.63;0.43;;;;;;;10.13;92.55;95449.88;5011124;28;20252;-80
2022/09/19 02:10:22;;;;;;;0.43;0.43;;;;;;;10.11;92.07;95466.44;5010514;28;20206;-80
2022/09/19 02:12:52;;;;;;;0.50;0.50;;;;;;;10.18;91.50;95470.72;5011821;28;20207;-80
2022/09/19 02:15:24;;;;;;;0.43;0.43;;;;;;;10.26;90.55;95467.28;5011294;28;20230;-79
2022/09/19 02:17:55;;;;;;;0.90;0.50;;;;;;;10.22;91.28;95461.69;5011014;28;20233;-80
2022/09/19 02:20:25;;;;;;;0.60;0.60;;;;;;;10.24;91.06;95466.66;5010785;28;20578;-81
2022/09/19 02:22:55;;;;;;;0.50;0.50;;;;;;;10.18;91.71;95460.44;5011236;28;20590;-81
2022/09/19 02:25:32;;;;;;;0.50;0.50;;;;;;;10.19;91.93;95456.91;5011226;28;20222;-81
2022/09/19 02:28:03;;;;;;;0.67;0.60;;;;;;;10.23;91.30;95462.50;5014652;28;20584;-81
2022/09/19 02:30:31;;;;;;;0.50;0.50;;;;;;;10.26;90.57;95455.22;5014344;28;20245;-81
2022/09/19 02:32:58;;;;;;;0.87;0.60;;;;;;;10.18;92.28;95472.50;5015172;28;20643;-81
2022/09/19 02:35:32;;;;;;;0.60;0.50;;;;;;;10.18;90.52;95464.78;5015067;28;20281;-80
2022/09/19 02:38:05;;;;;;;0.70;0.70;;;;;;;10.19;91.06;95476.69;5014973;28;20199;-80
2022/09/19 02:40:37;;;;;;;2.17;0.97;;;;;;;10.20;90.49;95481.66;5014600;28;20207;-81
2022/09/19 02:43:08;;;;;;;0.77;0.60;;;;;;;10.25;90.38;95476.78;5014815;28;20593;-81
2022/09/19 02:45:40;;;;;;;0.70;0.70;;;;;;;10.27;90.08;95476.59;5014561;28;20337;-81
2022/09/19 02:48:12;;;;;;;2.33;0.80;;;;;;;10.22;89.91;95487.41;5014982;28;20210;-81
2022/09/19 02:50:43;;;;;;;0.77;0.70;;;;;;;10.13;89.92;95483.31;5014143;28;20199;-80
2022/09/19 02:53:16;;;;;;;0.53;0.50;;;;;;;10.08;91.16;95488.19;5013207;28;20589;-79
2022/09/19 02:55:47;;;;;;;0.97;0.70;;;;;;;10.04;90.68;95489.50;5014388;28;20235;-80
2022/09/19 02:58:16;;;;;;;1.00;0.70;;;;;;;10.07;89.61;95491.72;5014531;28;20262;-79
2022/09/19 03:00:51;;;;;;;0.63;0.63;;;;;;;10.10;89.43;95495.72;5014186;28;20617;-80
2022/09/19 03:06:10;;;;;;;0.60;0.60;;;;;;;10.01;89.26;95506.06;5013609;28;20273;-80
2022/09/19 03:08:38;;;;;;;0.60;0.60;;;;;;;10.02;89.71;95505.09;5014166;28;20227;-79
2022/09/19 03:11:09;;;;;;;0.80;0.77;;;;;;;10.13;88.62;95506.47;5013656;28;20207;-80
2022/09/19 03:13:38;;;;;;;1.17;0.80;;;;;;;10.03;88.74;95509.28;5014499;28;20551;-80
2022/09/19 03:16:09;;;;;;;0.70;0.70;;;;;;;9.99;89.18;95508.03;5013822;28;20641;-80
2022/09/19 03:18:37;;;;;;;1.90;0.90;;;;;;;9.99;89.25;95507.25;5014328;28;20219;-79
2022/09/19 03:21:07;;;;;;;0.60;0.60;;;;;;;10.04;89.04;95502.34;5014197;28;20206;-80
2022/09/19 03:23:39;;;;;;;1.00;0.73;;;;;;;9.92;89.03;95507.13;5014582;28;20202;-80
2022/09/19 03:26:09;;;;;;;0.70;0.70;;;;;;;9.98;88.71;95514.16;5013548;28;20289;-80
2022/09/19 03:28:35;;;;;;;0.77;0.70;;;;;;;9.94;88.40;95518.06;5013999;28;20230;-81
2022/09/19 03:31:02;;;;;;;0.73;0.73;;;;;;;9.94;88.47;95514.69;5013883;28;20202;-79
2022/09/19 03:33:30;;;;;;;0.90;0.70;;;;;;;9.94;87.99;95520.63;5013987;28;20206;-80
2022/09/19 03:35:57;;;;;;;0.60;0.50;;;;;;;9.87;87.21;95529.19;5013641;28;20579;-79
2022/09/19 03:38:24;;;;;;;0.60;0.60;;;;;;;9.87;87.90;95526.63;5013212;28;20227;-79
2022/09/19 03:40:50;;;;;;;0.60;0.60;;;;;;;9.87;87.96;95539.47;5013079;28;20494;-80
2022/09/19 03:43:17;;;;;;;1.03;0.67;;;;;;;9.81;88.02;95540.19;5013374;28;20214;-80
2022/09/19 03:45:44;;;;;;;0.63;0.60;;;;;;;9.84;87.69;95542.38;5013067;28;20235;-79
2022/09/19 03:48:10;;;;;;;1.30;0.60;;;;;;;9.89;87.68;95538.34;5013658;28;20258;-81
2022/09/19 03:50:38;;;;;;;1.07;0.60;;;;;;;9.89;86.86;95540.91;5012817;28;20272;-81
2022/09/19 03:53:06;;;;;;;1.73;0.60;;;;;;;9.87;86.15;95550.56;5011916;28;20822;-81
2022/09/19 03:55:33;;;;;;;0.80;0.50;;;;;;;9.85;86.35;95560.22;5012902;28;20313;-79
2022/09/19 03:58:00;;;;;;;0.60;0.60;;;;;;;9.83;85.66;95562.16;5013272;28;20199;-79
2022/09/19 04:00:26;;;;;;;0.57;0.53;;;;;;;9.79;85.94;95558.34;5012563;28;20207;-79
2022/09/19 04:02:53;;;;;;;0.50;0.50;;;;;;;9.68;86.34;95564.69;5013316;28;20213;-80
2022/09/19 04:05:19;;;;;;;2.00;0.73;;;;;;;9.64;86.88;95563.41;5012923;28;20228;-80
2022/09/19 04:07:48;;;;;;;1.63;0.63;;;;;;;9.67;85.66;95564.84;5012579;28;20229;-79
2022/09/19 04:10:14;;;;;;;0.83;0.67;;;;;;;9.61;85.54;95561.22;5012366;28;20243;-79
2022/09/19 04:12:41;;;;;;;2.10;0.60;;;;;;;9.64;85.67;95572.91;5013316;28;20226;-79
2022/09/19 04:15:08;;;;;;;2.30;0.60;;;;;;;9.68;85.48;95569.03;5012415;28;20742;-80
2022/09/19 04:17:35;;;;;;;0.70;0.70;;;;;;;9.63;85.14;95573.88;5012665;28;20206;-79
2022/09/19 04:20:02;;;;;;;0.93;0.60;;;;;;;9.67;85.55;95575.13;5012649;28;20269;-80
2022/09/19 04:22:28;;;;;;;1.13;0.60;;;;;;;9.58;85.63;95581.31;5012774;28;20209;-80
2022/09/19 04:24:56;;;;;;;2.30;0.60;;;;;;;9.60;85.73;95584.50;5012435;28;20838;-80
2022/09/19 04:27:22;;;;;;;1.33;0.60;;;;;;;9.55;85.14;95585.03;5012655;28;20253;-80
2022/09/19 04:29:49;;;;;;;2.23;0.90;;;;;;;9.53;85.50;95594.66;5012444;28;20788;-79
2022/09/19 04:32:15;;;;;;;1.20;0.70;;;;;;;9.54;85.76;95588.56;5012589;28;20593;-80
2022/09/19 04:34:43;;;;;;;0.90;0.60;;;;;;;9.49;85.20;95590.81;5012576;28;20198;-79
2022/09/19 04:37:10;;;;;;;0.70;0.63;;;;;;;9.47;85.10;95592.75;5012584;28;20297;-79
2022/09/19 04:39:37;;;;;;;2.37;0.90;;;;;;;9.50;84.64;95601.91;5012786;28;20231;-80
2022/09/19 04:42:05;;;;;;;1.53;0.70;;;;;;;9.50;84.48;95607.03;5011976;28;20860;-79
2022/09/19 04:44:31;;;;;;;4.43;0.90;;;;;;;9.54;84.47;95613.47;5012956;28;20203;-79
2022/09/19 04:46:58;;;;;;;2.07;0.83;;;;;;;9.48;84.99;95614.94;5011857;28;20231;-79
2022/09/19 04:49:34;;;;;;;1.17;0.70;;;;;;;9.48;84.48;95620.06;5011300;28;20734;-80
2022/09/19 04:52:01;;;;;;;1.97;0.70;;;;;;;9.42;85.03;95613.06;5010933;28;20202;-79
2022/09/19 04:54:28;;;;;;;2.83;0.90;;;;;;;9.47;84.46;95604.81;5012651;28;20207;-80
2022/09/19 04:56:54;;;;;;;2.83;0.80;;;;;;;9.46;84.65;95608.34;5012247;28;20234;-80
2022/09/19 04:59:22;;;;;;;2.03;0.77;;;;;;;9.35;84.76;95604.41;5012375;28;20226;-80
2022/09/19 05:01:49;;;;;;;1.90;1.00;;;;;;;9.38;84.87;95614.34;5012227;28;20670;-80
2022/09/19 05:04:16;;;;;;;3.97;0.80;;;;;;;9.37;84.97;95612.75;5012561;28;20203;-80
2022/09/19 05:06:43;;;;;;;2.07;0.93;;;;;;;9.36;84.89;95613.72;5011966;28;20234;-80
2022/09/19 05:09:11;;;;;;;1.47;0.80;;;;;;;9.24;84.41;95626.09;5012263;28;20249;-79
2022/09/19 05:11:40;;;;;;;1.03;0.67;;;;;;;9.17;85.67;95627.75;5011750;28;20298;-80
2022/09/19 05:14:09;;;;;;;2.37;0.90;;;;;;;9.19;85.55;95627.59;5012168;28;20210;-80
2022/09/19 05:16:37;;;;;;;3.90;1.27;;;;;;;9.23;85.46;95626.31;5017312;28;20238;-80
2022/09/19 05:19:03;;;;;;;2.87;0.80;;;;;;;9.23;85.37;95634.81;5011849;28;20227;-80
2022/09/19 05:21:30;;;;;;;1.63;0.80;;;;;;;9.17;84.76;95630.34;5011573;28;20199;-80
2022/09/19 05:23:56;;;;;;;2.17;1.03;;;;;;;9.18;85.33;95646.53;5012060;28;20199;-79
2022/09/19 05:26:22;;;;;;;1.93;1.00;;;;;;;9.10;84.60;95642.22;5011530;28;20234;-80
2022/09/19 05:28:49;;;;;;;2.47;0.90;;;;;;;9.21;85.07;95635.94;5011799;28;20238;-80
2022/09/19 05:31:18;;;;;;;3.10;0.80;;;;;;;9.23;84.29;95649.44;5011221;28;20213;-79
2022/09/19 05:33:46;;;;;;;1.73;0.70;;;;;;;9.21;86.11;95654.72;5011698;28;20203;-80
2022/09/19 05:36:12;;;;;;;2.93;0.90;;;;;;;9.20;84.87;95650.56;5011208;28;20281;-80
2022/09/19 05:38:39;;;;;;;2.73;0.90;;;;;;;9.13;85.71;95657.31;5011559;28;20229;-79
2022/09/19 05:41:08;;;;;;;3.30;0.90;;;;;;;9.18;85.22;95662.75;5011079;28;20206;-80
2022/09/19 05:43:34;;;;;;;1.90;1.00;;;;;;;9.22;85.33;95668.38;5012698;28;20298;-79
2022/09/19 05:46:01;;;;;;;6.00;3.47;;;;;;;9.23;85.72;95673.34;5012582;28;20227;-80
2022/09/19 05:48:29;;;;;;;6.60;3.97;;;;;;;9.31;84.91;95673.31;5011692;28;20226;-79
2022/09/19 05:54:16;;;;;;;3.37;0.93;;;;;;;9.50;84.48;95673.88;4911043;28;20210;-81
2022/09/19 05:56:50;;;;;;;2.67;1.10;;;;;;;9.56;83.91;95680.91;5006915;28;20373;-81
2022/09/19 05:59:16;;;;;;;3.70;1.00;;;;;;;9.54;83.39;95675.16;5011539;28;20232;-81
2022/09/19 06:01:42;;;;;;;4.37;1.00;;;;;;;9.56;83.23;95680.91;5014087;28;20394;-80
2022/09/19 06:04:09;;;;;;;2.37;1.20;;;;;;;9.58;82.99;95692.66;5016167;28;20203;-80
2022/09/19 06:06:36;;;;;;;2.07;1.13;;;;;;;9.68;83.33;95707.84;5015575;28;20234;-81
2022/09/19 06:09:03;;;;;;;2.73;1.10;;;;;;;9.67;82.46;95713.97;5015560;28;20645;-80
2022/09/19 06:11:34;;;;;;;3.87;1.10;;;;;;;9.68;83.46;95723.28;5015251;28;20202;-80
2022/09/19 06:14:15;;;;;;;2.20;1.00;;;;;;;9.81;83.32;95720.19;5016693;28;20222;-81
2022/09/19 06:16:42;;;;;;;3.57;1.53;;;;;;;9.84;82.67;95722.41;5016715;28;20250;-80
2022/09/19 06:19:09;;;;;;;1.87;1.27;;;;;;;9.72;83.82;95729.69;5016586;28;20310;-81
2022/09/19 06:21:35;;;;;;;4.40;1.10;;;;;;;9.69;83.29;95724.88;5015766;28;20261;-80
2022/09/19 06:24:02;;;;;;;3.73;1.33;;;;;;;9.70;83.65;95731.63;5016036;28;20194;-81
2022/09/19 06:26:29;;;;;;;9.70;6.10;;;;;;;9.68;83.09;95724.06;5015150;28;20242;-80
2022/09/19 06:29:03;;;;;;;7.23;2.23;;;;;;;9.67;83.73;95737.91;5016369;28;20230;-79
2022/09/19 06:31:35;;;;;;;4.83;1.37;;;;;;;9.61;83.65;95738.59;5017474;28;20270;-80
2022/09/19 06:34:05;;;;;;;4.90;1.50;;;;;;;9.71;83.81;95743.50;5018520;28;20206;-80
2022/09/19 06:36:31;;;;;;;3.00;1.00;;;;;;;9.76;83.02;95745.59;5021898;28;20234;-81
2022/09/19 06:41:50;;;;;;;3.87;1.10;;;;;;;9.74;82.53;95758.59;5028292;28;20714;-88
2022/09/19 06:44:24;;;;;;;5.27;1.23;;;;;;;9.70;83.36;95753.00;5038818;28;20230;-89
2022/09/19 06:46:51;;;;;;;3.87;1.23;;;;;;;9.84;84.17;95754.06;5038297;28;20305;-88
2022/09/19 06:49:18;;;;;;;4.83;1.80;;;;;;;9.88;83.34;95760.47;5038495;28;20218;-88
2022/09/19 06:51:50;;;;;;;5.93;1.40;;;;;;;10.02;82.49;95757.19;5036709;28;20202;-88
2022/09/19 06:54:17;;;;;;;4.37;1.20;;;;;;;9.91;83.26;95752.44;5038789;28;20225;-88
2022/09/19 06:56:44;;;;;;;3.27;1.23;;;;;;;9.94;82.73;95753.88;5045134;28;20225;-88
2022/09/19 06:59:11;;;;;;;4.83;1.43;;;;;;;10.08;82.72;95757.47;5043795;28;20226;-89
2022/09/19 07:01:41;;;;;;;4.43;1.37;;;;;;;10.05;82.18;95767.13;5044223;28;20213;-89
2022/09/19 07:04:09;;;;;;;7.77;1.80;;;;;;;10.16;82.47;95775.47;5044493;28;20206;-88
2022/09/19 07:06:37;;;;;;;4.50;1.47;;;;;;;10.15;81.78;95771.28;5042730;28;20331;-89
2022/09/19 07:09:06;;;;;;;5.30;1.20;;;;;;;10.05;81.97;95781.78;5041777;28;20249;-89
2022/09/19 07:11:43;;;;;;;2.43;1.20;;;;;;;9.98;82.20;95781.66;5041336;28;20198;-89
2022/09/19 07:17:05;;;;;;;4.40;1.20;;;;;;;9.89;82.03;95779.28;5041302;28;20225;-88
2022/09/19 07:19:37;;;;;;;5.07;1.40;;;;;;;10.04;81.99;95791.25;5041824;28;20841;-89
2022/09/19 07:22:08;;;;;;;5.30;1.37;;;;;;;10.04;82.04;95796.41;5038824;28;20194;-89
2022/09/19 07:24:34;;;;;;;3.53;1.20;;;;;;;10.12;82.65;95790.44;5023986;28;20206;-89
2022/09/19 07:27:01;;;;;;;6.60;3.27;;;;;;;10.08;82.80;95803.78;5018574;28;20226;-86
2022/09/19 07:29:33;;;;;;;6.00;3.13;;;;;;;10.11;82.20;95801.69;5013826;28;20737;-88
2022/09/19 07:32:12;;;;;;;7.00;1.60;;;;;;;10.24;82.60;95801.16;5013635;28;20199;-87
2022/09/19 07:34:40;;;;;;;5.60;1.40;;;;;;;10.21;83.55;95812.59;5014606;28;20191;-86
2022/09/19 07:37:12;;;;;;;4.83;1.40;;;;;;;10.20;82.17;95825.66;5014396;28;20241;-86
2022/09/19 07:39:53;;;;;;;3.97;1.50;;;;;;;10.26;82.02;95824.97;5014696;28;20227;-87
2022/09/19 07:42:25;;;;;;;3.00;1.30;;;;;;;10.33;82.24;95831.06;5015172;28;20211;-87
2022/09/19 07:44:52;;;;;;;3.70;1.50;;;;;;;10.32;81.58;95827.66;5015118;28;20264;-87
2022/09/19 07:47:28;;;;;;;6.23;1.43;;;;;;;10.36;81.22;95830.72;5015654;28;20198;-87
2022/09/19 07:49:58;;;;;;;2.40;1.17;;;;;;;10.26;82.09;95833.47;5015825;28;20214;-88
2022/09/19 07:52:24;;;;;;;1.93;1.27;;;;;;;10.25;82.36;95834.44;5014446;28;20226;-87
2022/09/19 07:55:04;;;;;;;4.70;1.37;;;;;;;10.31;81.97;95838.13;5008353;28;20201;-88
2022/09/19 07:57:37;;;;;;;4.83;1.50;;;;;;;10.34;81.16;95846.31;5017185;28;20202;-87
2022/09/19 08:00:05;;;;;;;4.53;1.27;;;;;;;10.27;81.81;95857.44;5017219;28;20222;-89
2022/09/19 08:02:42;;;;;;;6.70;1.30;;;;;;;10.40;81.13;95855.13;5017525;28;20209;-88
2022/09/19 08:05:13;;;;;;;2.47;1.30;;;;;;;10.47;81.60;95857.84;5034798;28;20230;-88
2022/09/19 08:07:47;;;;;;;3.57;1.30;;;;;;;10.54;81.04;95869.88;5037110;28;20257;-87
2022/09/19 08:10:16;;;;;;;4.90;1.70;;;;;;;10.68;80.21;95868.34;5035823;28;20262;-89
2022/09/19 08:12:45;;;;;;;7.73;1.40;;;;;;;10.81;80.83;95871.16;5036470;28;20240;-88
2022/09/19 08:15:22;;;;;;;3.73;1.47;;;;;;;10.82;80.19;95871.94;5036383;28;20262;-88
2022/09/19 08:18:17;;;;;;;3.60;1.20;;;;;;;10.91;79.12;95883.81;5036095;28;20201;-89
2022/09/19 08:20:50;;;;;;;4.10;1.10;;;;;;;10.82;79.33;95883.06;5037072;28;20190;-89
2022/09/19 08:23:26;;;;;;;3.37;1.27;;;;;;;10.94;80.95;95888.63;5026599;28;20199;-89
2022/09/19 08:26:02;;;;;;;4.60;1.20;;;;;;;10.94;80.11;95883.50;5017669;28;20246;-88
2022/09/19 08:28:31;;;;;;;5.57;1.90;;;;;;;10.87;80.01;95892.84;5017268;28;20222;-88
2022/09/19 08:31:03;;;;;;;5.37;1.30;;;;;;;10.95;80.34;95898.78;5015682;28;20278;-87
2022/09/19 08:33:39;;;;;;;3.40;1.10;;;;;;;10.82;79.02;95900.28;5017462;28;20674;-87
2022/09/19 08:36:06;;;;;;;3.97;1.30;;;;;;;10.87;79.62;95901.38;5015055;28;20234;-88
2022/09/19 08:38:32;;;;;;;2.13;1.07;;;;;;;10.90;79.92;95897.69;5016578;28;20237;-88
2022/09/19 08:41:21;;;;;;;3.63;1.40;;;;;;;10.82;79.84;95900.28;5015927;28;20211;-87
2022/09/19 08:43:58;;;;;;;4.93;1.33;;;;;;;10.86;79.27;95899.78;5016364;28;20234;-88
2022/09/19 08:46:35;;;;;;;4.83;1.40;;;;;;;10.94;79.28;95889.44;5016943;28;20227;-87
2022/09/19 08:49:09;;;;;;;1.87;1.10;;;;;;;11.07;79.32;95894.03;5017196;28;20238;-88
2022/09/19 08:51:53;;;;;;;4.07;1.10;;;;;;;11.37;77.80;95895.72;5015035;28;20207;-88
2022/09/19 08:54:30;;;;;;;2.50;1.03;;;;;;;11.62;76.54;95892.94;5017155;28;20195;-89
2022/09/19 08:57:10;;;;;;;2.70;1.20;;;;;;;11.64;76.39;95898.72;5022430;28;20229;-89
2022/09/19 08:59:41;;;;;;;3.93;1.37;;;;;;;11.77;75.60;95906.69;5016761;28;20218;-88
2022/09/19 09:02:20;;;;;;;2.80;1.37;;;;;;;11.66;74.77;95907.09;5016592;28;20206;-90
2022/09/19 09:04:52;;;;;;;3.10;1.33;;;;;;;11.63;74.35;95905.66;5032067;28;20233;-89
2022/09/19 09:07:33;;;;;;;3.07;1.23;;;;;;;11.62;75.04;95905.81;5037392;28;20236;-89
2022/09/19 09:10:14;;;;;;;3.10;1.07;;;;;;;11.59;75.02;95913.91;5036197;28;20229;-89
2022/09/19 09:12:52;;;;;;;4.47;1.20;;;;;;;11.66;75.51;95922.56;5035876;28;20612;-88
2022/09/19 09:15:28;;;;;;;2.63;1.17;;;;;;;11.80;74.52;95908.91;5035346;28;20316;-88
2022/09/19 09:18:05;;;;;;;3.03;1.37;;;;;;;11.86;73.62;95917.75;5035957;28;20235;-88
2022/09/19 09:20:47;;;;;;;4.33;1.70;;;;;;;12.06;73.48;95916.25;5035104;28;20206;-88
2022/09/19 09:23:20;;;;;;;4.03;1.17;;;;;;;12.15;72.86;95912.59;5024274;28;20289;-88
2022/09/19 09:26:03;;;;;;;;;;;;;;;;;;;;;
2022/09/19 09:28:43;;;;;;;8.67;5.13;;;;;;;12.17;74.03;95907.25;5014916;28;20230;-88
2022/09/19 09:31:17;;;;;;;4.40;2.37;;;;;;;12.45;71.50;95908.22;5015566;28;20696;-87
2022/09/19 09:36:42;;;;;;;1.90;0.90;;;;;;;12.48;70.68;95915.63;5013343;28;20223;-88
2022/09/19 09:39:18;;;;;;;3.07;1.10;;;;;;;12.68;69.97;95915.84;5014648;28;20230;-89
2022/09/19 09:41:51;;;;;;;5.00;1.40;;;;;;;12.99;68.40;95916.41;5015662;28;20285;-89
2022/09/19 09:44:32;;;;;;;2.00;1.13;;;;;;;13.02;68.69;95912.66;5015577;28;20203;-88
2022/09/19 09:47:05;;;;;;;3.93;1.27;;;;;;;13.19;67.79;95915.81;5015099;28;20717;-89
2022/09/19 09:49:33;;;;;;;2.13;1.13;;;;;;;13.20;67.44;95915.66;5015093;28;20230;-87
2022/09/19 09:52:16;;;;;;;5.77;1.20;;;;;;;13.10;67.38;95917.69;5014332;28;20195;-89
2022/09/19 09:57:50;;;;;;;2.93;1.07;;;;;;;12.94;68.68;95915.34;5015654;28;20300;-88
2022/09/19 10:06:08;;;;;;;2.73;1.00;;;;;;;12.94;68.52;95928.25;5028493;28;20236;-88
2022/09/19 10:08:39;;;;;;;1.97;1.00;;;;;;;13.01;67.76;95929.94;5034691;28;20679;-88
2022/09/19 10:11:12;;;;;;;1.17;0.90;;;;;;;12.97;67.89;95922.72;5034501;28;20224;-88
2022/09/19 10:13:45;;;;;;;2.33;1.10;;;;;;;12.86;67.36;95931.78;5035984;28;20198;-90
2022/09/19 10:16:14;;;;;;;3.90;1.10;;;;;;;12.80;67.97;95925.53;5035705;28;20582;-88
2022/09/19 10:18:44;;;;;;;2.70;1.20;;;;;;;12.97;69.29;95925.31;5033478;28;20222;-88
2022/09/19 10:21:14;;;;;;;2.20;1.07;;;;;;;13.05;67.22;95928.59;5034568;28;20204;-88
2022/09/19 10:23:45;;;;;;;4.03;1.13;;;;;;;13.02;66.48;95934.13;5019934;28;20234;-88
2022/09/19 10:26:15;;;;;;;3.77;1.20;;;;;;;13.00;66.92;95925.75;5014814;28;20265;-88
2022/09/19 10:28:59;;;;;;;1.93;1.13;;;;;;;13.06;66.87;95929.41;5015570;28;20256;-87
2022/09/19 10:31:34;;;;;;;4.53;1.30;;;;;;;13.17;67.43;95928.13;5014393;28;20203;-89
2022/09/19 10:34:04;;;;;;;2.47;1.00;;;;;;;13.14;66.14;95926.69;5014987;28;20202;-87
2022/09/19 10:36:37;;;;;;;2.47;0.93;;;;;;;13.11;66.89;95925.25;5014144;28;20321;-88
2022/09/19 10:39:20;;;;;;;4.23;1.13;;;;;;;13.13;65.83;95920.72;5014662;28;20231;-88
2022/09/19 10:41:47;;;;;;;2.57;1.23;;;;;;;13.07;67.40;95931.00;5014093;28;20234;-87
2022/09/19 10:44:36;;;;;;;2.73;1.13;;;;;;;13.06;66.62;95934.56;5015735;28;20211;-87
2022/09/19 10:47:04;;;;;;;4.10;1.20;;;;;;;13.14;67.79;95918.94;4997141;28;20658;-90
2022/09/19 10:49:55;;;;;;;2.50;1.10;;;;;;;13.14;66.81;95929.25;5003727;28;20242;-89
2022/09/19 10:52:33;;;;;;;3.17;1.07;;;;;;;13.05;65.48;95923.44;5003125;28;20219;-89
2022/09/19 10:55:09;;;;;;;1.50;0.83;;;;;;;13.08;66.46;95937.78;5002427;28;20207;-89
2022/09/19 10:57:45;;;;;;;1.70;0.90;;;;;;;13.16;66.69;95923.94;5002861;28;20199;-89
2022/09/19 11:00:49;;;;;;;1.70;0.70;;;;;;;13.39;66.48;95934.91;5002525;28;20231;-89
2022/09/19 11:03:23;;;;;;;3.30;0.90;;;;;;;13.49;64.92;95923.25;5005878;28;20254;-89
2022/09/19 11:06:07;;;;;;;2.63;0.83;;;;;;;13.45;64.05;95921.25;5021277;28;20242;-88
2022/09/19 11:08:42;;;;;;;3.10;1.10;;;;;;;13.46;64.27;95925.44;5022076;28;20230;-88
2022/09/19 11:11:24;;;;;;;1.53;0.93;;;;;;;13.45;62.71;95921.25;5021720;28;20871;-89
2022/09/19 11:14:08;;;;;;;1.53;0.90;;;;;;;13.47;62.68;95927.81;5021497;28;20678;-89
2022/09/19 11:17:00;;;;;;;5.13;1.13;;;;;;;13.37;63.15;95932.50;5020783;28;20238;-89
2022/09/19 11:19:36;;;;;;;1.70;1.03;;;;;;;13.39;62.85;95927.97;5021627;28;20223;-89
2022/09/19 11:22:16;;;;;;;1.87;0.83;;;;;;;13.54;63.07;95927.88;5021301;28;20210;-89
2022/09/19 11:25:01;;;;;;;5.10;1.27;;;;;;;13.56;62.43;95930.28;5021690;28;20238;-89
2022/09/19 11:27:46;;;;;;;2.47;1.10;;;;;;;13.63;63.95;95929.38;5020015;28;20218;-88
2022/09/19 11:30:18;;;;;;;21.90;16.33;;;;;;;13.76;64.62;95919.13;5019639;28;20234;-88
2022/09/19 11:33:08;;;;;;;7.17;5.77;;;;;;;14.03;65.58;95916.72;5019554;28;20259;-88
2022/09/19 11:35:44;;;;;;;1.53;1.07;;;;;;;14.10;61.98;95918.34;5019846;28;20250;-88
2022/09/19 11:38:32;;;;;;;2.80;1.10;;;;;;;14.27;61.88;95923.22;5019552;28;20238;-89
2022/09/19 11:41:08;;;;;;;2.90;1.03;;;;;;;14.33;62.43;95919.88;5019358;28;20213;-88
2022/09/19 11:43:48;;;;;;;1.60;1.20;;;;;;;14.26;61.69;95917.22;5020135;28;20697;-88
2022/09/19 11:46:30;;;;;;;1.27;1.10;;;;;;;14.10;61.47;95917.53;5018822;28;20238;-88
2022/09/19 11:49:36;;;;;;;3.13;1.37;;;;;;;14.07;62.02;95916.13;5019700;28;20229;-89
2022/09/19 11:52:15;;;;;;;2.97;1.15;;;;;;;14.02;61.70;95910.75;4957439;29;20200;-87
2022/09/19 11:54:59;;;;;;;3.88;1.10;;;;;;;13.97;62.53;95909.69;5014623;28;20301;-88
2022/09/19 11:57:55;;;;;;;2.63;1.10;;;;;;;13.81;61.29;95909.00;5018917;28;20238;-87
2022/09/19 12:00:25;;;;;;;1.43;0.87;;;;;;;13.73;61.07;95903.94;5019113;28;20219;-88
2022/09/19 12:03:24;;;;;;;1.20;0.90;;;;;;;13.76;61.43;95905.38;5018935;28;20274;-89
2022/09/19 12:06:25;;;;;;;1.50;0.80;;;;;;;13.72;61.36;95907.53;4997576;28;20293;-89
2022/09/19 12:09:08;;;;;;;1.43;0.87;;;;;;;13.76;62.00;95901.00;4993375;28;20227;-88
2022/09/19 12:11:56;;;;;;;3.50;0.97;;;;;;;13.75;60.99;95901.19;4999260;28;20211;-88
2022/09/19 12:14:44;;;;;;;1.77;1.00;;;;;;;13.74;61.45;95897.00;4999134;28;20212;-88
2022/09/19 12:17:19;;;;;;;2.10;0.90;;;;;;;13.85;62.45;95893.91;4985454;28;20282;-88
2022/09/19 12:19:51;;;;;;;9.50;6.53;;;;;;;13.92;61.83;95888.75;4999055;28;20230;-89
2022/09/19 12:22:27;;;;;;;2.47;1.90;;;;;;;13.96;62.22;95888.19;5001827;28;20207;-88
2022/09/19 12:25:01;;;;;;;2.77;1.27;;;;;;;14.03;62.13;95880.47;5017222;28;20206;-88
2022/09/19 12:27:33;;;;;;;3.67;1.20;;;;;;;13.94;61.90;95879.81;5018676;28;20199;-89
2022/09/19 12:30:05;;;;;;;3.87;1.00;;;;;;;13.88;62.28;95880.56;5018567;28;20285;-89
2022/09/19 12:32:43;;;;;;;2.55;1.02;;;;;;;13.82;61.21;95878.75;5018889;28;20266;-88
2022/09/19 12:35:25;;;;;;;1.93;0.90;;;;;;;13.80;61.23;95881.53;5016962;28;20226;-89